createdAt,value
2017-02-13T00:00:54.111Z,90.52
2017-02-13T00:02:07.896Z,90.81
2017-02-13T00:03:21.656Z,90.42
2017-02-13T00:04:36.036Z,90.42
2017-02-13T00:05:50.483Z,91
2017-02-13T00:07:04.924Z,91.09
2017-02-13T00:08:19.320Z,91.09
2017-02-13T00:09:33.099Z,91.87
2017-02-13T00:10:47.536Z,92.07
2017-02-13T00:12:01.934Z,91.58
2017-02-13T00:13:16.364Z,92.25
2017-02-13T00:14:30.785Z,92.83
2017-02-13T00:15:45.209Z,92.83
2017-02-13T00:16:59.642Z,92.11
2017-02-13T00:18:14.033Z,92.45
2017-02-13T00:19:28.472Z,92.45
2017-02-13T00:20:42.840Z,92.93
2017-02-13T00:21:57.236Z,91.97
2017-02-13T00:23:11.001Z,91.87
2017-02-13T00:24:25.386Z,91.58
2017-02-13T00:25:39.808Z,91.19
2017-02-13T00:26:54.277Z,91.87
2017-02-13T00:28:08.669Z,91.77
2017-02-13T00:29:22.465Z,91.97
2017-02-13T00:30:36.844Z,91.49
2017-02-13T00:31:51.240Z,91.77
2017-02-13T00:33:05.649Z,91
2017-02-13T00:34:19.464Z,91.29
2017-02-13T00:35:33.850Z,90.91
2017-02-13T00:36:48.290Z,91.39
2017-02-13T00:38:02.712Z,91
2017-02-13T00:39:16.436Z,90.03
2017-02-13T00:40:30.853Z,90.23
2017-02-13T00:41:45.223Z,90.52
2017-02-13T00:42:59.688Z,89.84
2017-02-13T00:44:14.093Z,88.29
2017-02-13T00:45:27.827Z,88.05
2017-02-13T00:46:41.604Z,88.34
2017-02-13T00:47:56.035Z,88.63
2017-02-13T00:49:10.469Z,88.24
2017-02-13T00:50:24.909Z,87.37
2017-02-13T00:51:39.350Z,86.89
2017-02-13T00:52:53.731Z,86.41
2017-02-13T00:54:08.151Z,85.97
2017-02-13T00:55:21.865Z,85.97
2017-02-13T00:56:36.296Z,85.97
2017-02-13T00:57:50.666Z,86.16
2017-02-13T00:59:04.425Z,85.68
2017-02-13T01:00:18.838Z,85
2017-02-13T01:01:33.250Z,85.39
2017-02-13T01:02:47.614Z,84.9
2017-02-13T01:04:01.442Z,84.94
2017-02-13T01:05:15.234Z,85
2017-02-13T01:06:29.626Z,84.75
2017-02-13T01:07:43.384Z,84.9
2017-02-13T01:08:57.736Z,85.1
2017-02-13T01:10:10.862Z,84.42
2017-02-13T01:11:25.256Z,84.27
2017-02-13T01:12:39.658Z,84.56
2017-02-13T01:13:54.097Z,85.14
2017-02-13T01:15:08.496Z,85.24
2017-02-13T01:16:22.965Z,85.1
2017-02-13T01:17:37.371Z,85.58
2017-02-13T01:18:51.734Z,84.36
2017-02-13T01:20:06.174Z,84.84
2017-02-13T01:21:20.574Z,85.24
2017-02-13T01:22:34.957Z,85.42
2017-02-13T01:23:49.407Z,85.33
2017-02-13T01:25:03.811Z,85.1
2017-02-13T01:26:18.181Z,85.19
2017-02-13T01:27:32.624Z,85.91
2017-02-13T01:28:47.174Z,84.27
2017-02-13T01:30:01.587Z,84.84
2017-02-13T01:31:15.996Z,84.66
2017-02-13T01:32:30.414Z,85.24
2017-02-13T01:33:44.842Z,83.69
2017-02-13T01:34:59.246Z,84.94
2017-02-13T01:36:13.624Z,84.17
2017-02-13T01:37:28.017Z,84.56
2017-02-13T01:38:41.741Z,84.56
2017-02-13T01:39:56.154Z,83.78
2017-02-13T01:41:10.542Z,83.49
2017-02-13T01:42:24.968Z,82.72
2017-02-13T01:43:39.382Z,83.3
2017-02-13T01:44:53.785Z,83.2
2017-02-13T01:46:08.181Z,82.91
2017-02-13T01:47:21.930Z,82.23
2017-02-13T01:48:36.336Z,82.23
2017-02-13T01:49:50.722Z,81.85
2017-02-13T01:51:05.150Z,81.6
2017-02-13T01:52:18.913Z,80.82
2017-02-13T01:53:33.327Z,80.34
2017-02-13T01:54:47.765Z,80.44
2017-02-13T01:56:02.184Z,79.95
2017-02-13T01:57:16.564Z,79.27
2017-02-13T01:58:30.972Z,80.34
2017-02-13T01:59:45.383Z,80.15
2017-02-13T02:00:59.780Z,80.15
2017-02-13T02:02:14.175Z,79.76
2017-02-13T02:03:28.574Z,79.57
2017-02-13T02:04:42.963Z,80.82
2017-02-13T02:05:57.354Z,81.02
2017-02-13T02:07:11.735Z,80.63
2017-02-13T02:08:26.122Z,80.73
2017-02-13T02:09:40.549Z,81.12
2017-02-13T02:10:54.957Z,81.21
2017-02-13T02:12:09.369Z,81.79
2017-02-13T02:13:23.766Z,81.27
2017-02-13T02:14:38.155Z,81.5
2017-02-13T02:15:52.539Z,80.88
2017-02-13T02:17:06.285Z,80.79
2017-02-13T02:18:20.662Z,80.54
2017-02-13T02:19:35.017Z,80.34
2017-02-13T02:20:49.418Z,80.44
2017-02-13T02:22:03.827Z,80.82
2017-02-13T02:23:18.207Z,80.24
2017-02-13T02:24:32.620Z,80.82
2017-02-13T02:25:45.771Z,81.12
2017-02-13T02:27:00.195Z,80.82
2017-02-13T02:28:14.613Z,80.92
2017-02-13T02:29:29.004Z,81.17
2017-02-13T02:30:43.405Z,81.85
2017-02-13T02:31:57.831Z,81.89
2017-02-13T02:33:12.227Z,81.75
2017-02-13T02:34:25.964Z,81.85
2017-02-13T02:35:40.336Z,81.37
2017-02-13T02:36:54.738Z,81.65
2017-02-13T02:38:09.159Z,81.27
2017-02-13T02:39:22.937Z,81.65
2017-02-13T02:40:37.350Z,82.14
2017-02-13T02:41:51.745Z,82.04
2017-02-13T02:43:05.497Z,82.23
2017-02-13T02:44:19.903Z,82.04
2017-02-13T02:45:34.344Z,82.53
2017-02-13T02:46:48.753Z,82.72
2017-02-13T02:48:03.192Z,83.01
2017-02-13T02:49:15.671Z,82.72
2017-02-13T02:50:30.089Z,82.62
2017-02-13T02:51:44.513Z,82.72
2017-02-13T02:52:58.229Z,83.01
2017-02-13T02:54:11.990Z,83.3
2017-02-13T02:55:26.350Z,82.72
2017-02-13T02:56:40.776Z,83.78
2017-02-13T02:57:55.199Z,83.78
2017-02-13T02:59:09.622Z,83.49
2017-02-13T03:00:24.036Z,83.59
2017-02-13T03:01:38.461Z,83.69
2017-02-13T03:02:52.866Z,84.36
2017-02-13T03:04:07.243Z,84.75
2017-02-13T03:05:20.982Z,84.32
2017-02-13T03:06:35.380Z,84.32
2017-02-13T03:07:49.753Z,84.61
2017-02-13T03:09:04.175Z,84.9
2017-02-13T03:10:18.601Z,84.61
2017-02-13T03:11:33.065Z,84.8
2017-02-13T03:12:47.525Z,85.19
2017-02-13T03:14:01.939Z,84.9
2017-02-13T03:15:15.752Z,85.58
2017-02-13T03:16:30.156Z,85.48
2017-02-13T03:17:44.611Z,85.77
2017-02-13T03:18:59.045Z,85.58
2017-02-13T03:20:12.793Z,85.58
2017-02-13T03:21:27.195Z,85.29
2017-02-13T03:22:41.597Z,85.68
2017-02-13T03:23:55.377Z,85.68
2017-02-13T03:25:09.777Z,85.87
2017-02-13T03:26:24.145Z,85.83
2017-02-13T03:27:38.511Z,85.73
2017-02-13T03:28:52.907Z,85.63
2017-02-13T03:30:07.297Z,86.02
2017-02-13T03:31:21.741Z,85.83
2017-02-13T03:32:35.541Z,86.11
2017-02-13T03:33:49.953Z,85.73
2017-02-13T03:35:04.372Z,86.02
2017-02-13T03:36:18.764Z,86.21
2017-02-13T03:37:33.144Z,86.21
2017-02-13T03:38:47.534Z,85.73
2017-02-13T03:40:02.006Z,86.41
2017-02-13T03:41:16.438Z,86.21
2017-02-13T03:42:30.857Z,86.6
2017-02-13T03:43:44.641Z,86.99
2017-02-13T03:44:59.048Z,87.27
2017-02-13T03:46:13.441Z,87.37
2017-02-13T03:47:27.854Z,88.24
2017-02-13T03:48:42.251Z,87.18
2017-02-13T03:49:56.631Z,87.33
2017-02-13T03:51:11.090Z,88.15
2017-02-13T03:52:25.564Z,88.15
2017-02-13T03:53:39.979Z,88.2
2017-02-13T03:54:54.382Z,87.85
2017-02-13T03:56:08.777Z,87.71
2017-02-13T03:57:22.554Z,87.04
2017-02-13T03:58:36.937Z,87.85
2017-02-13T03:59:51.337Z,88.78
2017-02-13T04:01:05.722Z,88.59
2017-02-13T04:02:20.105Z,88.78
2017-02-13T04:03:34.490Z,88.49
2017-02-13T04:04:48.923Z,88.68
2017-02-13T04:06:03.344Z,86.46
2017-02-13T04:07:17.786Z,86.94
2017-02-13T04:08:32.211Z,88.2
2017-02-13T04:09:46.640Z,86.85
2017-02-13T04:11:00.987Z,86.27
2017-02-13T04:12:14.775Z,86.75
2017-02-13T04:13:29.185Z,85.3
2017-02-13T04:14:43.625Z,85.21
2017-02-13T04:15:58.036Z,85.73
2017-02-13T04:17:12.419Z,86.11
2017-02-13T04:18:26.863Z,86.75
2017-02-13T04:19:41.314Z,86.75
2017-02-13T04:20:55.705Z,87.62
2017-02-13T04:22:09.442Z,86.94
2017-02-13T04:23:23.228Z,87.33
2017-02-13T04:24:37.622Z,87.04
2017-02-13T04:25:52.035Z,87.04
2017-02-13T04:27:06.467Z,88.2
2017-02-13T04:28:20.871Z,87.33
2017-02-13T04:29:33.977Z,87.71
2017-02-13T04:30:48.399Z,88.29
2017-02-13T04:32:02.826Z,88.29
2017-02-13T04:33:16.611Z,87.23
2017-02-13T04:34:31.041Z,86.8
2017-02-13T04:35:45.463Z,85.01
2017-02-13T04:36:59.856Z,84.72
2017-02-13T04:38:14.271Z,85.69
2017-02-13T04:39:28.651Z,86.17
2017-02-13T04:40:43.052Z,84.24
2017-02-13T04:41:57.454Z,85.3
2017-02-13T04:43:11.872Z,86.07
2017-02-13T04:44:26.258Z,83.27
2017-02-13T04:45:40.687Z,83.08
2017-02-13T04:46:55.085Z,84.82
2017-02-13T04:48:09.479Z,83.18
2017-02-13T04:49:23.887Z,83.47
2017-02-13T04:50:38.280Z,82.6
2017-02-13T04:51:52.636Z,83.66
2017-02-13T04:53:07.051Z,85.01
2017-02-13T04:54:21.469Z,83.85
2017-02-13T04:55:35.848Z,84.63
2017-02-13T04:56:50.309Z,83.95
2017-02-13T04:58:04.670Z,84.72
2017-02-13T04:59:19.091Z,82.4
2017-02-13T05:00:33.481Z,84.05
2017-02-13T05:01:47.919Z,83.27
2017-02-13T05:03:02.331Z,84.53
2017-02-13T05:04:16.080Z,84.14
2017-02-13T05:05:30.509Z,83.18
2017-02-13T05:06:44.941Z,84.05
2017-02-13T05:07:59.312Z,84.14
2017-02-13T05:09:13.695Z,85.3
2017-02-13T05:10:28.121Z,84
2017-02-13T05:11:41.879Z,84
2017-02-13T05:12:56.272Z,85.64
2017-02-13T05:14:10.676Z,87.96
2017-02-13T05:15:25.130Z,85.84
2017-02-13T05:16:38.888Z,85.16
2017-02-13T05:17:53.299Z,85.26
2017-02-13T05:19:07.773Z,85.16
2017-02-13T05:20:22.182Z,84.58
2017-02-13T05:21:35.914Z,83.14
2017-02-13T05:22:50.306Z,83.14
2017-02-13T05:24:04.729Z,84.68
2017-02-13T05:25:18.528Z,81.59
2017-02-13T05:26:32.950Z,81.49
2017-02-13T05:27:47.388Z,81.4
2017-02-13T05:29:01.764Z,81.68
2017-02-13T05:30:16.142Z,80.57
2017-02-13T05:31:30.492Z,81.63
2017-02-13T05:32:44.864Z,79.41
2017-02-13T05:33:59.262Z,80.66
2017-02-13T05:35:13.019Z,78.92
2017-02-13T05:36:27.471Z,78.73
2017-02-13T05:37:41.901Z,79.89
2017-02-13T05:38:56.340Z,79.5
2017-02-13T05:40:10.047Z,79.8
2017-02-13T05:41:24.462Z,74.96
2017-02-13T05:42:38.837Z,75.68
2017-02-13T05:43:53.263Z,75.48
2017-02-13T05:45:07.699Z,78.29
2017-02-13T05:46:20.803Z,77.71
2017-02-13T05:47:35.194Z,76.9
2017-02-13T05:48:49.573Z,78.54
2017-02-13T05:50:04.007Z,77.09
2017-02-13T05:51:17.797Z,77.19
2017-02-13T05:52:32.195Z,76.12
2017-02-13T05:53:45.936Z,75.06
2017-02-13T05:55:00.349Z,74.77
2017-02-13T05:56:14.104Z,75.64
2017-02-13T05:57:28.507Z,75.54
2017-02-13T05:58:42.891Z,75.35
2017-02-13T05:59:57.315Z,75.74
2017-02-13T06:01:11.696Z,75.35
2017-02-13T06:02:25.481Z,75.35
2017-02-13T06:03:39.900Z,76.8
2017-02-13T06:04:54.340Z,76.51
2017-02-13T06:06:08.056Z,76.22
2017-02-13T06:07:24.511Z,76.03
2017-02-13T06:08:38.924Z,74.87
2017-02-13T06:09:53.305Z,72.84
2017-02-13T06:11:07.052Z,74.77
2017-02-13T06:12:21.439Z,74.68
2017-02-13T06:13:35.886Z,75.64
2017-02-13T06:14:50.348Z,75.64
2017-02-13T06:16:04.764Z,75.84
2017-02-13T06:17:19.172Z,74.58
2017-02-13T06:18:33.595Z,74.87
2017-02-13T06:19:47.982Z,75.16
2017-02-13T06:21:02.423Z,75.74
2017-02-13T06:22:16.192Z,75.16
2017-02-13T06:23:30.643Z,74.29
2017-02-13T06:24:45.089Z,74.1
2017-02-13T06:25:59.462Z,76.12
2017-02-13T06:27:13.883Z,76.03
2017-02-13T06:28:28.258Z,76.95
2017-02-13T06:29:42.634Z,77.05
2017-02-13T06:30:56.433Z,77.34
2017-02-13T06:32:10.820Z,75.51
2017-02-13T06:33:25.228Z,76.95
2017-02-13T06:34:38.985Z,76.76
2017-02-13T06:35:53.392Z,76.09
2017-02-13T06:37:07.815Z,75.7
2017-02-13T06:38:22.219Z,75.12
2017-02-13T06:39:36.628Z,74.54
2017-02-13T06:40:50.994Z,74.93
2017-02-13T06:42:05.429Z,74.44
2017-02-13T06:43:19.169Z,73.19
2017-02-13T06:44:33.616Z,73.96
2017-02-13T06:45:48.048Z,73.32
2017-02-13T06:47:02.502Z,72.26
2017-02-13T06:48:16.291Z,72.84
2017-02-13T06:49:30.734Z,71.88
2017-02-13T06:50:44.454Z,73.61
2017-02-13T06:51:58.897Z,73.61
2017-02-13T06:53:13.334Z,72.06
2017-02-13T06:54:27.796Z,72.94
2017-02-13T06:55:42.200Z,72.55
2017-02-13T06:56:56.628Z,72.16
2017-02-13T06:58:10.448Z,72.74
2017-02-13T06:59:24.821Z,72.94
2017-02-13T07:00:39.257Z,72.06
2017-02-13T07:01:53.640Z,72.45
2017-02-13T07:03:08.040Z,72.94
2017-02-13T07:04:22.442Z,72.36
2017-02-13T07:05:36.876Z,73.22
2017-02-13T07:06:51.257Z,73.61
2017-02-13T07:08:05.668Z,72.55
2017-02-13T07:09:20.032Z,72.55
2017-02-13T07:10:34.447Z,73.03
2017-02-13T07:11:48.225Z,74
2017-02-13T07:13:02.647Z,73.9
2017-02-13T07:14:17.020Z,73.19
2017-02-13T07:15:31.387Z,73.8
2017-02-13T07:16:45.818Z,73.8
2017-02-13T07:18:00.257Z,72.42
2017-02-13T07:19:14.642Z,73.19
2017-02-13T07:20:29.037Z,73.77
2017-02-13T07:21:43.446Z,73.77
2017-02-13T07:22:57.862Z,74.35
2017-02-13T07:24:11.652Z,74.54
2017-02-13T07:25:25.396Z,74.25
2017-02-13T07:26:39.784Z,74.06
2017-02-13T07:27:54.289Z,73.19
2017-02-13T07:29:08.090Z,74.06
2017-02-13T07:30:22.423Z,73.67
2017-02-13T07:31:36.802Z,73.77
2017-02-13T07:32:51.198Z,73.77
2017-02-13T07:34:04.967Z,73.77
2017-02-13T07:35:19.376Z,73.77
2017-02-13T07:36:33.780Z,73.77
2017-02-13T07:37:48.182Z,74.25
2017-02-13T07:39:02.547Z,74.83
2017-02-13T07:40:16.930Z,75.22
2017-02-13T07:41:31.317Z,74.73
2017-02-13T07:42:45.664Z,75.47
2017-02-13T07:44:00.115Z,74.21
2017-02-13T07:45:14.501Z,74.41
2017-02-13T07:46:28.899Z,75.22
2017-02-13T07:47:43.332Z,75.02
2017-02-13T07:48:57.742Z,75.09
2017-02-13T07:50:11.498Z,75.09
2017-02-13T07:51:25.879Z,75.47
2017-02-13T07:52:40.311Z,76.15
2017-02-13T07:53:54.702Z,73.83
2017-02-13T07:55:09.084Z,74.41
2017-02-13T07:56:23.473Z,75.85
2017-02-13T07:57:37.862Z,76.15
2017-02-13T07:58:52.275Z,75.85
2017-02-13T08:00:06.711Z,76.34
2017-02-13T08:01:21.110Z,76.63
2017-02-13T08:02:35.510Z,77.69
2017-02-13T08:03:49.888Z,77.78
2017-02-13T08:05:04.311Z,77.5
2017-02-13T08:06:18.775Z,77.98
2017-02-13T08:07:33.181Z,77.46
2017-02-13T08:08:47.596Z,77.94
2017-02-13T08:10:01.986Z,78.33
2017-02-13T08:11:16.375Z,78.23
2017-02-13T08:12:30.757Z,77.65
2017-02-13T08:13:45.149Z,78.13
2017-02-13T08:14:59.496Z,78.42
2017-02-13T08:16:13.904Z,78.42
2017-02-13T08:17:28.305Z,78.23
2017-02-13T08:18:42.748Z,79.29
2017-02-13T08:19:57.138Z,79.39
2017-02-13T08:21:10.893Z,78.61
2017-02-13T08:22:25.310Z,79.29
2017-02-13T08:23:39.744Z,78.52
2017-02-13T08:24:54.113Z,79.29
2017-02-13T08:26:08.526Z,79.19
2017-02-13T08:27:22.939Z,78.81
2017-02-13T08:28:36.787Z,79.39
2017-02-13T08:29:51.172Z,79.29
2017-02-13T08:31:05.603Z,79.58
2017-02-13T08:32:20.013Z,79.1
2017-02-13T08:33:34.438Z,79.54
2017-02-13T08:34:48.843Z,80.06
2017-02-13T08:36:03.217Z,79.29
2017-02-13T08:37:17.590Z,79.16
2017-02-13T08:38:32.004Z,79.1
2017-02-13T08:39:46.394Z,79.83
2017-02-13T08:41:00.798Z,79.49
2017-02-13T08:42:15.217Z,79.35
2017-02-13T08:43:29.002Z,80.6
2017-02-13T08:44:43.434Z,79.06
2017-02-13T08:45:57.821Z,80.12
2017-02-13T08:47:11.592Z,79.93
2017-02-13T08:48:25.983Z,80.6
2017-02-13T08:49:40.360Z,81.76
2017-02-13T08:50:53.453Z,80.31
2017-02-13T08:52:07.834Z,80.51
2017-02-13T08:53:22.211Z,80.6
2017-02-13T08:54:36.628Z,80.99
2017-02-13T08:55:51.090Z,80.99
2017-02-13T08:57:05.523Z,82.53
2017-02-13T08:58:19.951Z,82.43
2017-02-13T08:59:34.373Z,82.05
2017-02-13T09:00:48.154Z,82.92
2017-02-13T09:02:02.585Z,81.27
2017-02-13T09:03:16.303Z,80.99
2017-02-13T09:04:30.147Z,81.66
2017-02-13T09:05:44.656Z,79.1
2017-02-13T09:06:59.051Z,78.23
2017-02-13T09:08:13.450Z,77.69
2017-02-13T09:09:27.860Z,77.11
2017-02-13T09:10:42.319Z,76.82
2017-02-13T09:11:56.703Z,76.24
2017-02-13T09:13:10.504Z,75.95
2017-02-13T09:14:24.968Z,76.05
2017-02-13T09:15:39.377Z,76.09
2017-02-13T09:16:53.833Z,75.51
2017-02-13T09:18:08.300Z,74.93
2017-02-13T09:19:22.697Z,75.7
2017-02-13T09:20:37.081Z,75.31
2017-02-13T09:21:51.456Z,75.51
2017-02-13T09:23:05.881Z,73.96
2017-02-13T09:24:20.292Z,72.94
2017-02-13T09:25:34.711Z,70.75
2017-02-13T09:26:49.087Z,70.01
2017-02-13T09:28:03.509Z,68.49
2017-02-13T09:29:17.933Z,67.43
2017-02-13T09:30:32.339Z,67.46
2017-02-13T09:31:46.766Z,66.88
2017-02-13T09:33:01.182Z,66.5
2017-02-13T09:34:15.017Z,66.24
2017-02-13T09:35:29.463Z,65.3
2017-02-13T09:36:43.901Z,65.63
2017-02-13T09:37:58.328Z,63.98
2017-02-13T09:39:12.067Z,62.49
2017-02-13T09:40:26.448Z,62.19
2017-02-13T09:41:40.841Z,63.82
2017-02-13T09:42:54.599Z,64.75
2017-02-13T09:44:08.956Z,63.49
2017-02-13T09:45:23.314Z,63.53
2017-02-13T09:46:37.705Z,65.37
2017-02-13T09:47:52.096Z,66.72
2017-02-13T09:49:06.510Z,67.56
2017-02-13T09:50:20.940Z,68.11
2017-02-13T09:51:35.388Z,68.49
2017-02-13T09:52:49.793Z,66.88
2017-02-13T09:54:04.209Z,66.02
2017-02-13T09:55:18.593Z,66.11
2017-02-13T09:56:33.033Z,66.3
2017-02-13T09:57:47.406Z,66.69
2017-02-13T09:59:01.221Z,66.5
2017-02-13T10:00:15.677Z,67.08
2017-02-13T10:01:30.082Z,66.3
2017-02-13T10:02:44.505Z,66.4
2017-02-13T10:03:58.924Z,66.3
2017-02-13T10:05:13.379Z,66.5
2017-02-13T10:06:27.758Z,67.18
2017-02-13T10:07:42.167Z,67.05
2017-02-13T10:08:56.546Z,68.11
2017-02-13T10:10:10.964Z,67.24
2017-02-13T10:11:25.382Z,68.15
2017-02-13T10:12:39.759Z,67.08
2017-02-13T10:13:54.139Z,67.18
2017-02-13T10:15:08.559Z,66.6
2017-02-13T10:16:22.946Z,66.98
2017-02-13T10:17:37.356Z,66.78
2017-02-13T10:18:51.787Z,67.08
2017-02-13T10:20:06.176Z,65.53
2017-02-13T10:21:19.959Z,65.56
2017-02-13T10:22:34.359Z,65.66
2017-02-13T10:23:48.112Z,66.14
2017-02-13T10:25:01.960Z,67.08
2017-02-13T10:26:16.356Z,66.5
2017-02-13T10:27:30.748Z,68.73
2017-02-13T10:28:45.165Z,67.66
2017-02-13T10:29:59.564Z,67.08
2017-02-13T10:31:13.374Z,65.47
2017-02-13T10:32:27.206Z,66.3
2017-02-13T10:33:41.706Z,66.02
2017-02-13T10:34:56.203Z,66.63
2017-02-13T10:36:09.979Z,66.5
2017-02-13T10:37:24.421Z,65.47
2017-02-13T10:38:38.795Z,67.02
2017-02-13T10:39:53.202Z,66.63
2017-02-13T10:41:07.587Z,65.75
2017-02-13T10:42:21.324Z,66.34
2017-02-13T10:43:35.764Z,67.37
2017-02-13T10:44:50.147Z,67.46
2017-02-13T10:46:04.547Z,65.95
2017-02-13T10:47:18.305Z,63.56
2017-02-13T10:48:32.684Z,64.53
2017-02-13T10:49:47.083Z,65.05
2017-02-13T10:51:01.489Z,64.82
2017-02-13T10:52:15.910Z,65.2
2017-02-13T10:53:30.336Z,64.82
2017-02-13T10:54:44.706Z,64.43
2017-02-13T10:55:58.457Z,63.75
2017-02-13T10:57:12.207Z,63.07
2017-02-13T10:58:26.631Z,63.69
2017-02-13T10:59:41.019Z,64.75
2017-02-13T11:00:54.118Z,63.78
2017-02-13T11:02:08.479Z,63.49
2017-02-13T11:03:22.902Z,63.01
2017-02-13T11:04:37.304Z,63.49
2017-02-13T11:05:51.693Z,61.88
2017-02-13T11:07:05.874Z,60.64
2017-02-13T11:08:19.604Z,62.85
2017-02-13T11:09:33.327Z,62.62
2017-02-13T11:10:47.038Z,63.75
2017-02-13T11:12:00.741Z,63.75
2017-02-13T11:13:13.304Z,62.82
2017-02-13T11:14:27.030Z,63.3
2017-02-13T11:15:40.758Z,63.3
2017-02-13T11:16:54.482Z,62.23
2017-02-13T11:18:08.206Z,61.98
2017-02-13T11:19:21.967Z,61.39
2017-02-13T11:20:35.683Z,62.19
2017-02-13T11:21:49.408Z,61.52
2017-02-13T11:23:02.568Z,59.67
2017-02-13T11:24:16.321Z,62.16
2017-02-13T11:25:30.116Z,62.23
2017-02-13T11:26:43.854Z,62.75
2017-02-13T11:27:57.585Z,63.33
2017-02-13T11:29:11.313Z,62.85
2017-02-13T11:30:25.016Z,62.1
2017-02-13T11:31:38.699Z,60.35
2017-02-13T11:32:52.417Z,59.8
2017-02-13T11:34:06.113Z,60.28
2017-02-13T11:35:19.240Z,61.91
2017-02-13T11:36:32.943Z,61.04
2017-02-13T11:37:46.643Z,59.38
2017-02-13T11:39:00.440Z,60
2017-02-13T11:40:14.223Z,58.37
2017-02-13T11:41:27.988Z,59.51
2017-02-13T11:42:41.813Z,59.87
2017-02-13T11:43:55.562Z,61
2017-02-13T11:45:09.347Z,62.46
2017-02-13T11:46:23.071Z,61.39
2017-02-13T11:47:36.195Z,60.64
2017-02-13T11:48:49.379Z,61.61
2017-02-13T11:50:02.540Z,59.87
2017-02-13T11:51:16.270Z,58.93
2017-02-13T11:52:30.002Z,59.9
2017-02-13T11:53:43.756Z,59.61
2017-02-13T11:54:57.742Z,59.61
2017-02-13T11:56:11.506Z,59.67
2017-02-13T11:57:25.267Z,59.77
2017-02-13T11:58:38.975Z,61.49
2017-02-13T11:59:52.704Z,59.84
2017-02-13T12:01:05.852Z,61.17
2017-02-13T12:02:19.026Z,60.91
2017-02-13T12:03:32.733Z,61
2017-02-13T12:04:45.878Z,58.8
2017-02-13T12:05:59.593Z,60.19
2017-02-13T12:07:13.328Z,60.06
2017-02-13T12:08:27.057Z,61.52
2017-02-13T12:09:40.824Z,61.52
2017-02-13T12:10:54.557Z,59.97
2017-02-13T12:12:07.807Z,60.38
2017-02-13T12:13:20.360Z,59.51
2017-02-13T12:14:34.073Z,60.12
2017-02-13T12:15:47.771Z,59.15
2017-02-13T12:17:01.535Z,61.16
2017-02-13T12:18:14.642Z,61.42
2017-02-13T12:19:28.407Z,61.58
2017-02-13T12:20:42.307Z,61.42
2017-02-13T12:21:55.982Z,60.77
2017-02-13T12:23:09.743Z,60.64
2017-02-13T12:24:23.465Z,61.81
2017-02-13T12:25:37.210Z,62.49
2017-02-13T12:26:50.932Z,61.81
2017-02-13T12:28:04.681Z,61.81
2017-02-13T12:29:17.811Z,60.38
2017-02-13T12:30:31.539Z,60.22
2017-02-13T12:31:45.282Z,57.14
2017-02-13T12:32:58.421Z,59.28
2017-02-13T12:34:11.520Z,58.14
2017-02-13T12:35:24.656Z,57.17
2017-02-13T12:36:38.358Z,59.28
2017-02-13T12:37:52.112Z,58.31
2017-02-13T12:39:05.232Z,57.92
2017-02-13T12:40:18.975Z,58.86
2017-02-13T12:41:32.731Z,60.12
2017-02-13T12:42:46.466Z,59.05
2017-02-13T12:45:34.556Z,57.28
2017-02-13T12:46:47.729Z,58.67
2017-02-13T12:48:01.477Z,58.34
2017-02-13T12:49:15.191Z,58.83
2017-02-13T12:50:28.955Z,59.7
2017-02-13T12:51:41.499Z,58.15
2017-02-13T12:52:54.739Z,56.92
2017-02-13T12:54:08.471Z,56.85
2017-02-13T12:55:21.640Z,57.17
2017-02-13T12:56:34.756Z,55.71
2017-02-13T12:57:48.509Z,56.59
2017-02-13T12:59:02.209Z,57.43
2017-02-13T13:00:15.394Z,56.46
2017-02-13T13:01:29.144Z,56.75
2017-02-13T13:02:42.305Z,54.8
2017-02-13T13:03:55.469Z,56.77
2017-02-13T13:05:09.153Z,54.08
2017-02-13T13:06:22.296Z,54.83
2017-02-13T13:07:36.055Z,55.61
2017-02-13T13:08:48.630Z,55.9
2017-02-13T13:10:01.765Z,55.58
2017-02-13T13:11:15.485Z,56.07
2017-02-13T13:12:29.209Z,55.58
2017-02-13T13:13:42.890Z,56.26
2017-02-13T13:14:56.619Z,56.04
2017-02-13T13:16:09.764Z,56.34
2017-02-13T13:17:23.513Z,56.07
2017-02-13T13:18:37.237Z,57.23
2017-02-13T13:19:49.786Z,55.39
2017-02-13T13:21:03.489Z,55.19
2017-02-13T13:22:16.613Z,55.94
2017-02-13T13:23:30.343Z,56.52
2017-02-13T13:24:44.068Z,55.78
2017-02-13T13:25:57.815Z,55.78
2017-02-13T13:27:10.985Z,55.58
2017-02-13T13:28:24.698Z,56.07
2017-02-13T13:29:38.387Z,56.16
2017-02-13T13:30:52.122Z,54.9
2017-02-13T13:32:05.860Z,54.47
2017-02-13T13:33:18.990Z,55.41
2017-02-13T13:34:32.171Z,54.83
2017-02-13T13:35:46.004Z,56.85
2017-02-13T13:36:59.784Z,57.23
2017-02-13T13:38:12.925Z,55.58
2017-02-13T13:39:26.665Z,55.51
2017-02-13T13:40:39.787Z,54.54
2017-02-13T13:41:52.896Z,53.14
2017-02-13T13:43:06.655Z,52.31
2017-02-13T13:44:20.361Z,52.4
2017-02-13T13:45:34.097Z,51.34
2017-02-13T13:46:47.231Z,53.28
2017-02-13T13:48:00.948Z,52.67
2017-02-13T13:49:14.699Z,52.84
2017-02-13T13:50:28.431Z,53.72
2017-02-13T13:51:41.559Z,52.84
2017-02-13T13:52:55.397Z,52.36
2017-02-13T13:54:09.152Z,51.51
2017-02-13T13:55:22.868Z,52.09
2017-02-13T13:56:36.560Z,51.99
2017-02-13T13:57:50.291Z,50.97
2017-02-13T13:59:04.023Z,50.56
2017-02-13T14:00:17.187Z,49.88
2017-02-13T14:01:30.947Z,51.21
2017-02-13T14:02:44.745Z,52.94
2017-02-13T14:03:58.469Z,51.48
2017-02-13T14:05:12.212Z,52.62
2017-02-13T14:06:25.948Z,52.79
2017-02-13T14:07:39.696Z,50.9
2017-02-13T14:08:52.826Z,50.82
2017-02-13T14:10:06.570Z,51.34
2017-02-13T14:11:19.069Z,52.09
2017-02-13T14:12:32.796Z,51.51
2017-02-13T14:13:46.531Z,51.61
2017-02-13T14:15:00.259Z,53.14
2017-02-13T14:16:13.475Z,51.41
2017-02-13T14:17:27.192Z,52.38
2017-02-13T14:18:40.938Z,50.73
2017-02-13T14:19:54.643Z,49.78
2017-02-13T14:21:08.385Z,49.99
2017-02-13T14:22:21.495Z,50.09
2017-02-13T14:23:34.636Z,50.87
2017-02-13T14:24:48.394Z,49.9
2017-02-13T14:26:02.115Z,51.26
2017-02-13T14:27:15.817Z,51.26
2017-02-13T14:28:29.585Z,50.85
2017-02-13T14:29:43.314Z,49
2017-02-13T14:30:57.025Z,49
2017-02-13T14:32:10.151Z,49.29
2017-02-13T14:33:23.301Z,49.78
2017-02-13T14:34:36.412Z,49.76
2017-02-13T14:35:50.122Z,48.97
2017-02-13T14:37:03.850Z,48.61
2017-02-13T14:38:17.576Z,48.73
2017-02-13T14:39:31.318Z,48.17
2017-02-13T14:40:45.117Z,47.51
2017-02-13T14:41:58.945Z,45.9
2017-02-13T14:43:12.669Z,44.94
2017-02-13T14:44:25.799Z,45.45
2017-02-13T14:45:39.519Z,45.82
2017-02-13T14:46:53.258Z,48.02
2017-02-13T14:48:06.418Z,47.8
2017-02-13T14:49:18.961Z,46.83
2017-02-13T14:50:32.112Z,47.71
2017-02-13T14:51:45.854Z,47.9
2017-02-13T14:52:59.555Z,46.44
2017-02-13T14:54:13.314Z,46.04
2017-02-13T14:55:26.447Z,46.53
2017-02-13T14:56:40.231Z,47.41
2017-02-13T14:57:53.983Z,47.22
2017-02-13T14:59:07.691Z,46.73
2017-02-13T15:00:21.433Z,48.17
2017-02-13T15:01:35.213Z,48.1
2017-02-13T15:02:48.986Z,45.46
2017-02-13T15:04:02.705Z,45.92
2017-02-13T15:05:15.870Z,46.12
2017-02-13T15:06:29.000Z,46.59
2017-02-13T15:07:42.714Z,45.65
2017-02-13T15:08:56.454Z,46.63
2017-02-13T15:10:09.577Z,46.61
2017-02-13T15:11:22.084Z,45.05
2017-02-13T15:12:35.807Z,44.87
2017-02-13T15:13:48.930Z,46.92
2017-02-13T15:15:02.739Z,47.17
2017-02-13T15:16:15.257Z,46.61
2017-02-13T15:17:28.974Z,45.81
2017-02-13T15:18:42.780Z,45.15
2017-02-13T15:19:56.514Z,46.34
2017-02-13T15:21:09.655Z,46.02
2017-02-13T15:22:22.226Z,44.78
2017-02-13T15:23:35.956Z,44.04
2017-02-13T15:24:49.696Z,42.42
2017-02-13T15:26:03.421Z,43.18
2017-02-13T15:27:16.011Z,43.08
2017-02-13T15:28:29.766Z,43.28
2017-02-13T15:29:43.521Z,43.69
2017-02-13T15:30:57.253Z,43.59
2017-02-13T15:32:10.428Z,43.38
2017-02-13T15:33:24.209Z,44.24
2017-02-13T15:34:37.960Z,44.58
2017-02-13T15:35:51.681Z,43.82
2017-02-13T15:37:05.423Z,43.24
2017-02-13T15:38:19.205Z,42.09
2017-02-13T15:39:32.913Z,41.99
2017-02-13T15:40:46.045Z,42.03
2017-02-13T15:41:59.772Z,42.89
2017-02-13T15:43:13.508Z,43.92
2017-02-13T15:44:27.271Z,43.04
2017-02-13T15:45:41.043Z,42.42
2017-02-13T15:46:54.189Z,40.78
2017-02-13T15:48:07.933Z,41.39
2017-02-13T15:49:21.695Z,42.07
2017-02-13T15:50:35.463Z,42.91
2017-02-13T15:51:49.213Z,42.52
2017-02-13T15:53:02.928Z,41.23
2017-02-13T15:54:16.092Z,41.27
2017-02-13T15:55:29.861Z,40.5
2017-02-13T15:56:43.665Z,40.78
2017-02-13T15:57:57.393Z,40.29
2017-02-13T15:59:10.559Z,40.09
2017-02-13T16:00:24.261Z,40.08